Comer, Alabama
Current Conditions -  °F | °C
As of 3:58 PM on Monday 20 Oct 2014 (Local Time) from KEUF Reporting Station
Clear Clear  
Wind Chill: 77°   Ceiling: Unl
Heat Index: 79°   Visibility: 10mi
Dew Point: 56°   Wind: 5mph
Humidity: 48%   Direction: 170°S
Pressure: 29.98"   Gusts: NA
Location:  32.1076°N, 85.5256°W
Report Text: KEUF 202058Z AUTO 17004KT 10SM CLR 25/13 A2998 RMK AO2 SLP149 T02500133 56016 $
Loading
Personal Weather Stations






























Interactive Weather Map
Tropical Storm Tracking
New forecast layout! Learn more

10-Day Weather Forecast

Advertisements
Track Severe Weather on mobile